Time;durP1;ratioP1;P1;durP2;ratioP2;P2;SDS_P1;SDS_P2;PMS_P1;PMS_P2;Temp;Humidity;BMP_temperature;BMP_pressure;BME280_temperature;BME280_humidity;BME280_pressure;Samples;Min_cycle;Max_cycle;Signal;HPM_P1;HPM_P2
2023/10/10 00:02:28;;;;;;;6.28;3.25;;;;;;;16.38;45.38;99887.84;5053039;28;20096;-38
2023/10/10 00:04:59;;;;;;;12.23;2.97;;;;;;;16.65;44.63;99889.97;5053204;28;20024;-39
2023/10/10 00:07:27;;;;;;;8.48;3.25;;;;;;;16.78;44.91;99887.81;5052747;28;20013;-36
2023/10/10 00:09:52;;;;;;;7.20;2.90;;;;;;;16.84;45.28;99893.31;5052881;28;20029;-38
2023/10/10 00:12:26;;;;;;;6.03;3.40;;;;;;;16.84;45.20;99888.75;5052934;28;20036;-38
2023/10/10 00:14:53;;;;;;;8.05;3.33;;;;;;;16.79;44.61;99876.00;5052866;28;20492;-37
2023/10/10 00:17:20;;;;;;;5.80;2.88;;;;;;;16.42;45.10;99878.25;5052976;28;20021;-38
2023/10/10 00:19:52;;;;;;;6.80;3.10;;;;;;;16.47;45.14;99874.84;5051647;28;20025;-38
2023/10/10 00:22:25;;;;;;;10.20;3.45;;;;;;;16.49;45.38;99878.94;5052804;28;20395;-38
2023/10/10 00:24:53;;;;;;;7.13;3.00;;;;;;;16.86;44.30;99881.25;5052526;28;20033;-38
2023/10/10 00:27:21;;;;;;;4.47;2.67;;;;;;;16.92;44.32;99877.59;5052231;28;20395;-37
2023/10/10 00:29:48;;;;;;;7.70;3.20;;;;;;;16.79;44.44;99872.50;5052480;28;20120;-39
2023/10/10 00:32:21;;;;;;;10.68;3.58;;;;;;;16.64;45.09;99875.75;5052233;28;20017;-38
2023/10/10 00:34:48;;;;;;;7.57;3.30;;;;;;;16.79;45.28;99872.50;5052205;28;20032;-38
2023/10/10 00:37:29;;;;;;;8.30;3.20;;;;;;;16.73;45.29;99865.41;5052221;28;20041;-38
2023/10/10 00:39:55;;;;;;;7.75;3.00;;;;;;;16.93;44.30;99860.44;5052213;28;20025;-36
2023/10/10 00:42:36;;;;;;;9.98;3.30;;;;;;;16.96;45.22;99859.94;5052491;28;20025;-38
2023/10/10 00:45:09;;;;;;;6.28;3.33;;;;;;;16.70;45.38;99847.91;5052363;28;20021;-37
2023/10/10 00:47:41;;;;;;;12.68;3.30;;;;;;;17.05;44.69;99849.59;5052145;28;20403;-42
2023/10/10 00:50:08;;;;;;;6.88;3.00;;;;;;;16.88;45.23;99848.78;5051166;28;20439;-41
2023/10/10 00:52:38;;;;;;;7.45;3.33;;;;;;;16.87;45.16;99850.66;5052314;28;20071;-43
2023/10/10 00:55:04;;;;;;;;;;;;;;;17.22;45.02;99840.72;5052349;28;20025;-43
2023/10/10 00:57:35;;;;;;;11.88;2.95;;;;;;;17.29;44.95;99836.81;5051570;28;19908;-43
2023/10/10 01:00:09;;;;;;;8.80;3.30;;;;;;;17.31;44.69;99826.63;5051594;28;20033;-43
2023/10/10 01:02:36;;;;;;;6.25;3.22;;;;;;;17.35;44.71;99835.81;5051289;28;20025;-46
2023/10/10 01:05:12;;;;;;;9.52;3.42;;;;;;;17.25;44.65;99841.06;5051412;28;20075;-43
2023/10/10 01:07:37;;;;;;;13.93;3.88;;;;;;;16.86;44.53;99832.88;5051466;28;20019;-43
2023/10/10 01:10:11;;;;;;;9.50;3.63;;;;;;;16.95;44.52;99836.00;5051205;28;20108;-44
2023/10/10 01:12:39;;;;;;;6.32;3.40;;;;;;;16.72;45.00;99837.72;5051551;28;20094;-44
2023/10/10 01:15:44;;;;;;;7.45;3.60;;;;;;;16.66;44.87;99825.25;5051632;28;20039;-44
2023/10/10 01:18:03;;;;;;;7.10;3.50;;;;;;;16.71;44.44;99838.75;5049476;28;20041;-42
2023/10/10 01:20:45;;;;;;;11.77;3.60;;;;;;;16.73;44.40;99839.34;5051611;28;20040;-45
2023/10/10 01:23:15;;;;;;;8.63;3.15;;;;;;;16.78;44.50;99839.44;5051635;28;20029;-40
2023/10/10 01:25:43;;;;;;;8.85;3.63;;;;;;;16.81;44.58;99843.50;5051212;28;20181;-43
2023/10/10 01:28:23;;;;;;;8.00;3.35;;;;;;;16.97;43.82;99842.75;5050938;28;20029;-42
2023/10/10 01:33:24;;;;;;;7.53;3.40;;;;;;;16.86;44.63;99848.19;5051065;28;20036;-41
2023/10/10 01:35:52;;;;;;;6.15;3.33;;;;;;;16.86;44.24;99848.19;5050690;28;20036;-42
2023/10/10 01:38:27;;;;;;;9.52;3.40;;;;;;;16.77;43.84;99848.56;5050478;28;20045;-43
2023/10/10 01:40:57;;;;;;;10.40;3.45;;;;;;;16.77;44.40;99840.50;5049417;28;20087;-42
2023/10/10 01:43:24;;;;;;;11.20;3.85;;;;;;;16.72;44.77;99850.34;5051045;28;20028;-42
2023/10/10 01:46:08;;;;;;;7.40;3.38;;;;;;;16.63;45.01;99844.53;5049676;28;20604;-41
2023/10/10 01:48:43;;;;;;;11.75;4.20;;;;;;;16.71;44.56;99862.13;5050736;28;20033;-44
2023/10/10 01:51:10;;;;;;;7.93;3.25;;;;;;;16.67;44.93;99856.44;5050758;28;20055;-41
2023/10/10 01:53:40;;;;;;;8.40;3.50;;;;;;;16.63;44.75;99854.47;5050443;28;20107;-42
2023/10/10 01:56:11;;;;;;;7.80;3.15;;;;;;;16.82;44.93;99847.88;5050391;28;20024;-41
2023/10/10 01:58:36;;;;;;;8.27;3.53;;;;;;;17.00;44.58;99836.06;5050415;28;20020;-42
2023/10/10 02:01:16;;;;;;;13.85;3.70;;;;;;;16.98;44.27;99835.50;5049925;28;20036;-43
2023/10/10 02:03:42;;;;;;;8.40;3.00;;;;;;;16.87;44.43;99845.28;5049048;28;20029;-43
2023/10/10 02:06:13;;;;;;;8.85;3.55;;;;;;;16.85;44.20;99846.56;5050019;28;20663;-43
2023/10/10 02:08:38;;;;;;;9.40;3.60;;;;;;;16.73;44.17;99857.34;5050407;28;20125;-42
2023/10/10 02:11:06;;;;;;;9.90;3.33;;;;;;;16.66;44.74;99852.13;5050131;28;20063;-39
2023/10/10 02:13:33;;;;;;;9.57;3.67;;;;;;;16.57;45.03;99856.25;5050350;28;20047;-39
2023/10/10 02:16:01;;;;;;;8.60;3.25;;;;;;;16.51;45.87;99868.78;5050611;28;20139;-38
2023/10/10 02:18:59;;;;;;;12.80;4.53;;;;;;;16.24;45.37;99873.88;5050682;28;20161;-38
2023/10/10 02:21:43;;;;;;;8.25;4.13;;;;;;;15.59;47.58;99874.84;5047458;28;20046;-38
2023/10/10 02:27:06;;;;;;;9.73;4.40;;;;;;;15.69;47.65;99875.09;5017137;28;20044;-39
2023/10/10 02:32:13;;;;;;;11.02;4.85;;;;;;;15.51;47.82;99869.84;5051095;28;20036;-39
2023/10/10 02:34:42;;;;;;;13.93;5.20;;;;;;;15.32;48.82;99869.13;5050911;28;20024;-39
2023/10/10 02:39:46;;;;;;;13.95;5.60;;;;;;;15.48;48.11;99857.72;5050945;28;20004;-39
2023/10/10 02:42:19;;;;;;;18.10;7.70;;;;;;;15.50;47.74;99849.41;5050909;28;20048;-39
2023/10/10 02:44:52;;;;;;;17.23;8.70;;;;;;;15.57;46.88;99861.69;5050888;28;20075;-38
2023/10/10 02:47:30;;;;;;;18.20;9.30;;;;;;;15.42;46.97;99870.19;5051156;28;20024;-39
2023/10/10 02:50:12;;;;;;;19.33;8.63;;;;;;;15.41;47.27;99857.81;5051134;28;20029;-38
2023/10/10 02:52:45;;;;;;;20.48;8.73;;;;;;;15.15;47.26;99856.38;5050736;28;20024;-44
2023/10/10 02:55:14;;;;;;;19.00;8.35;;;;;;;15.09;48.10;99867.22;5050817;28;20029;-45
2023/10/10 02:57:42;;;;;;;13.93;7.97;;;;;;;14.91;48.32;99874.28;5051087;28;20103;-42
2023/10/10 03:02:54;;;;;;;18.42;8.20;;;;;;;14.62;48.92;99881.28;5050862;28;20041;-42
2023/10/10 03:05:38;;;;;;;16.33;7.80;;;;;;;14.48;49.66;99875.25;5050829;28;20053;-42
2023/10/10 03:08:15;;;;;;;19.05;8.00;;;;;;;14.60;49.57;99875.31;5050684;28;20032;-42
2023/10/10 03:10:45;;;;;;;16.92;7.15;;;;;;;14.71;48.74;99868.41;5050720;28;20063;-41
2023/10/10 03:16:11;;;;;;;11.68;5.43;;;;;;;14.28;49.60;99870.16;5049844;28;19916;-42
2023/10/10 03:18:36;;;;;;;11.93;6.00;;;;;;;14.33;50.01;99869.47;5035004;28;20037;-41
2023/10/10 03:24:15;;;;;;;12.55;6.30;;;;;;;14.49;49.66;99868.88;5054494;28;20029;-44
2023/10/10 03:30:17;;;;;;;11.05;5.57;;;;;;;14.63;48.78;99877.56;5054299;28;20102;-41
2023/10/10 03:37:54;;;;;;;10.90;5.28;;;;;;;14.35;49.42;99873.56;5044607;28;20578;-41
2023/10/10 05:24:21;;;;;;;9.45;4.72;;;;;;;16.43;46.42;99939.00;5050221;28;20650;-43
2023/10/10 05:26:47;;;;;;;15.95;4.65;;;;;;;16.41;45.41;99938.38;5051127;28;20028;-42
2023/10/10 05:29:19;;;;;;;9.38;4.00;;;;;;;16.55;45.07;99926.34;5050794;28;20554;-42
2023/10/10 05:31:51;;;;;;;13.68;4.03;;;;;;;16.60;45.20;99930.97;5051112;28;20104;-44
2023/10/10 05:34:16;;;;;;;12.88;4.35;;;;;;;16.66;45.60;99932.72;5051553;28;20025;-45
2023/10/10 05:36:44;;;;;;;9.82;4.40;;;;;;;16.53;45.91;99941.06;5050565;28;20150;-43
2023/10/10 05:39:17;;;;;;;13.60;4.70;;;;;;;16.70;45.49;99943.81;5047639;28;20099;-44
2023/10/10 05:41:43;;;;;;;16.48;4.35;;;;;;;16.96;50.20;99950.50;5041535;28;20134;-42
2023/10/10 05:44:09;;;;;;;14.25;4.97;;;;;;;16.74;46.10;99944.97;5045871;28;20032;-46
2023/10/10 05:46:35;;;;;;;19.00;4.97;;;;;;;16.90;45.20;99946.09;5051313;28;20427;-45
2023/10/10 05:49:01;;;;;;;10.77;4.75;;;;;;;17.12;44.82;99952.44;5050859;28;20048;-45
2023/10/10 05:51:26;;;;;;;16.17;4.93;;;;;;;17.27;43.81;99959.13;5051241;28;20021;-42
2023/10/10 05:53:52;;;;;;;15.80;5.40;;;;;;;17.23;43.46;99953.44;5050694;28;20078;-42
2023/10/10 05:56:17;;;;;;;18.55;4.75;;;;;;;17.18;43.92;99961.41;5050060;28;20024;-44
2023/10/10 05:58:43;;;;;;;19.98;4.60;;;;;;;17.26;44.18;99960.19;5050245;28;20036;-43
2023/10/10 06:01:12;;;;;;;10.43;4.35;;;;;;;17.43;43.50;99960.22;5049801;28;20036;-44
2023/10/10 06:03:40;;;;;;;12.85;4.60;;;;;;;17.45;43.89;99966.97;5048661;28;20031;-47
2023/10/10 06:06:05;;;;;;;13.52;4.60;;;;;;;17.44;43.94;99956.44;5047680;28;20083;-43
2023/10/10 06:08:31;;;;;;;13.90;4.45;;;;;;;17.59;43.72;99959.41;5048316;28;20029;-41
2023/10/10 06:10:57;;;;;;;16.70;5.22;;;;;;;17.86;44.11;99961.44;5048309;28;20328;-44
2023/10/10 06:13:23;;;;;;;16.90;4.43;;;;;;;18.08;43.56;99962.31;5049569;28;20213;-43
2023/10/10 06:15:50;;;;;;;14.95;5.15;;;;;;;18.29;43.22;99959.91;5049066;28;20115;-44
2023/10/10 06:18:17;;;;;;;16.08;6.32;;;;;;;18.45;42.87;99960.94;5048920;28;20021;-45
2023/10/10 06:20:44;;;;;;;18.50;6.00;;;;;;;18.58;42.59;99941.69;5049274;28;20017;-43
2023/10/10 06:23:14;;;;;;;12.95;6.28;;;;;;;18.98;41.60;99961.31;5049335;28;20021;-43
2023/10/10 06:25:40;;;;;;;16.73;5.68;;;;;;;19.13;41.15;99958.75;5049612;28;20107;-44
2023/10/10 06:28:29;;;;;;;10.27;5.50;;;;;;;19.23;41.18;99961.56;5049619;28;20100;-44
2023/10/10 06:30:54;;;;;;;17.05;5.60;;;;;;;19.40;40.52;99972.25;5049873;28;20031;-42
2023/10/10 06:33:27;;;;;;;12.57;5.43;;;;;;;19.45;40.56;99966.06;5049483;28;20108;-43
2023/10/10 06:36:32;;;;;;;17.70;5.57;;;;;;;19.46;40.22;99971.22;5049414;28;20040;-42
2023/10/10 06:39:32;;;;;;;15.93;6.05;;;;;;;19.21;41.15;99979.06;5049475;28;20076;-42
2023/10/10 06:41:50;;;;;;;11.60;5.13;;;;;;;19.33;41.39;99975.16;5047442;28;20037;-42
2023/10/10 06:44:39;;;;;;;35.10;9.18;;;;;;;18.86;41.29;99970.34;5049596;28;20048;-45
2023/10/10 06:47:10;;;;;;;26.60;8.55;;;;;;;18.28;42.15;99977.97;5049556;28;20041;-41
2023/10/10 06:49:54;;;;;;;29.80;9.18;;;;;;;17.97;43.01;99985.63;5053287;28;20025;-44
2023/10/10 06:52:23;;;;;;;28.50;9.38;;;;;;;17.40;44.74;99980.31;5053701;28;20111;-41
2023/10/10 06:54:55;;;;;;;27.90;9.25;;;;;;;17.00;45.25;99981.22;5053620;28;20381;-44
2023/10/10 06:57:22;;;;;;;21.73;9.30;;;;;;;17.48;44.50;99984.53;5053481;28;20032;-42
2023/10/10 06:59:48;;;;;;;33.15;8.50;;;;;;;18.07;43.54;99978.75;5054192;28;20029;-43
2023/10/10 07:02:19;;;;;;;28.80;10.15;;;;;;;18.55;42.28;99979.94;5053505;28;20107;-42
2023/10/10 07:04:52;;;;;;;21.73;8.27;;;;;;;18.80;41.75;99971.38;5053618;28;20033;-43
2023/10/10 07:07:21;;;;;;;18.90;7.53;;;;;;;18.08;42.75;99983.88;5053238;28;20021;-47
2023/10/10 07:09:47;;;;;;;27.48;7.50;;;;;;;17.20;44.58;99991.56;5053874;28;20032;-43
2023/10/10 07:12:14;;;;;;;30.13;9.18;;;;;;;17.36;44.38;99988.09;5053190;28;20029;-45
2023/10/10 07:14:44;;;;;;;23.77;7.05;;;;;;;16.89;45.35;99977.53;5053653;28;20059;-44
2023/10/10 07:17:13;;;;;;;21.52;7.32;;;;;;;16.55;46.54;99973.88;5052973;28;20017;-44
2023/10/10 07:22:24;;;;;;;26.25;7.88;;;;;;;17.62;44.26;99980.44;5053178;28;20550;-43
2023/10/10 07:24:55;;;;;;;24.67;7.20;;;;;;;17.96;43.80;99978.59;5053182;28;20025;-43
2023/10/10 07:27:30;;;;;;;23.00;8.43;;;;;;;17.99;43.98;99985.34;5053271;28;20081;-41
2023/10/10 07:32:29;;;;;;;25.42;7.60;;;;;;;18.26;43.48;99987.34;5052771;28;20507;-45
2023/10/10 07:34:55;;;;;;;23.67;7.55;;;;;;;18.58;42.79;99982.09;5053217;28;20028;-45
2023/10/10 07:37:27;;;;;;;22.98;7.78;;;;;;;18.53;42.58;99982.06;5052922;28;20055;-45
2023/10/10 07:42:37;;;;;;;23.77;9.02;;;;;;;19.14;42.31;99979.28;5052871;28;20029;-43
2023/10/10 07:45:13;;;;;;;21.20;7.20;;;;;;;19.59;41.53;99990.75;5052740;28;20441;-44
2023/10/10 07:50:26;;;;;;;20.85;6.85;;;;;;;20.64;39.90;99977.44;5052623;28;20112;-45
2023/10/10 07:52:53;;;;;;;15.40;6.50;;;;;;;20.82;39.98;99973.41;5052879;28;20467;-44
2023/10/10 07:55:19;;;;;;;21.40;6.10;;;;;;;20.95;39.88;99976.72;5051942;28;20056;-43
2023/10/10 07:57:59;;;;;;;14.40;5.63;;;;;;;21.07;39.50;99969.97;5052376;28;20472;-44
2023/10/10 08:00:27;;;;;;;21.67;5.80;;;;;;;21.35;39.14;99965.16;5052287;28;20029;-44
2023/10/10 08:02:53;;;;;;;16.63;5.80;;;;;;;21.60;39.21;99975.19;5052462;28;20029;-43
2023/10/10 08:05:19;;;;;;;18.63;5.60;;;;;;;21.78;38.78;99967.59;5052282;28;20028;-41
2023/10/10 08:07:48;;;;;;;20.80;6.32;;;;;;;22.24;37.59;99964.81;5052309;28;20396;-43
2023/10/10 08:10:16;;;;;;;19.48;6.10;;;;;;;22.54;37.15;99977.50;5051915;28;20466;-41
2023/10/10 08:12:42;;;;;;;18.73;6.15;;;;;;;22.50;37.93;99984.53;5051897;28;20435;-45
2023/10/10 08:15:19;;;;;;;16.10;6.60;;;;;;;22.82;36.95;99986.84;5052280;28;20052;-47
2023/10/10 08:17:52;;;;;;;18.50;8.15;;;;;;;22.82;36.41;99983.31;5051662;28;20021;-43
2023/10/10 08:23:03;;;;;;;25.35;6.10;;;;;;;22.30;37.31;99963.75;5052112;28;20485;-41
2023/10/10 08:25:29;;;;;;;22.90;6.55;;;;;;;22.64;36.67;99955.75;5051775;28;20028;-42
2023/10/10 08:28:00;;;;;;;17.45;5.88;;;;;;;22.89;36.56;99958.63;5051667;28;20404;-43
2023/10/10 08:30:27;;;;;;;17.35;5.28;;;;;;;23.02;36.40;99961.50;5051533;28;20476;-45
2023/10/10 08:32:58;;;;;;;21.13;5.50;;;;;;;23.19;36.72;99963.88;5049385;28;20455;-44
2023/10/10 08:35:29;;;;;;;9.13;4.40;;;;;;;23.40;42.22;99969.97;5046711;28;20028;-42
2023/10/10 08:37:56;;;;;;;18.33;5.63;;;;;;;24.24;36.71;99966.25;5047212;28;20096;-46
2023/10/10 08:40:21;;;;;;;18.65;5.15;;;;;;;24.87;35.13;99948.88;5051560;28;20565;-45
2023/10/10 08:42:49;;;;;;;15.35;4.70;;;;;;;25.36;35.31;99961.25;5051289;28;20021;-42
2023/10/10 08:45:22;;;;;;;17.52;4.97;;;;;;;26.14;34.95;99967.00;5051855;28;20032;-45
2023/10/10 08:48:01;;;;;;;18.92;5.40;;;;;;;26.40;34.86;99968.41;5051686;28;20025;-43
2023/10/10 08:50:34;;;;;;;21.42;5.47;;;;;;;26.39;33.83;99964.88;5051520;28;20024;-42
2023/10/10 08:53:00;;;;;;;16.25;4.93;;;;;;;26.61;33.45;99950.53;5051197;28;20033;-44
2023/10/10 08:55:26;;;;;;;14.43;5.03;;;;;;;26.30;34.15;99970.22;5051036;28;20560;-42
2023/10/10 08:57:55;;;;;;;11.02;3.33;;;;;;;25.94;35.08;99953.75;5049494;28;20029;-42
2023/10/10 09:00:21;;;;;;;10.70;3.92;;;;;;;26.16;34.94;99966.72;5045433;28;20488;-42
2023/10/10 09:02:49;;;;;;;13.55;3.38;;;;;;;26.39;34.89;99970.34;5049801;28;20036;-41
2023/10/10 09:05:15;;;;;;;11.82;3.80;;;;;;;26.22;35.21;99967.41;5051173;28;20021;-43
2023/10/10 09:07:43;;;;;;;7.68;3.13;;;;;;;26.13;35.51;99962.66;5051309;28;20492;-43
2023/10/10 09:10:14;;;;;;;9.70;3.75;;;;;;;26.16;34.72;99963.16;5050170;28;20477;-43
2023/10/10 09:12:55;;;;;;;11.95;3.40;;;;;;;26.52;34.57;99952.31;5048872;28;20029;-41
2023/10/10 09:15:21;;;;;;;10.48;4.03;;;;;;;27.27;33.65;99958.38;5049815;28;20013;-42
2023/10/10 09:17:47;;;;;;;6.13;2.88;;;;;;;26.81;33.80;99960.22;5047597;28;20024;-43
2023/10/10 09:20:23;;;;;;;7.88;3.30;;;;;;;25.97;35.17;99965.97;5048155;28;20164;-44
2023/10/10 09:22:54;;;;;;;8.43;3.17;;;;;;;26.56;34.79;99964.28;5052331;28;20041;-43
2023/10/10 09:25:26;;;;;;;8.98;3.60;;;;;;;26.78;34.43;99963.53;5052002;28;20428;-40
2023/10/10 09:28:08;;;;;;;6.43;3.28;;;;;;;26.83;33.90;99957.97;5051430;28;20029;-42
2023/10/10 09:33:33;;;;;;;9.18;2.83;;;;;;;26.95;33.57;99951.19;5038560;28;20033;-42
2023/10/10 09:36:09;;;;;;;5.93;2.85;;;;;;;26.47;34.61;99938.81;5051370;28;20037;-43
2023/10/10 09:38:48;;;;;;;11.23;3.15;;;;;;;26.26;34.91;99952.06;5051125;28;20068;-44
2023/10/10 09:44:27;;;;;;;7.68;3.20;;;;;;;27.43;33.21;99947.88;5051488;28;20025;-44
2023/10/10 09:49:40;;;;;;;9.02;3.15;;;;;;;28.24;32.10;99958.63;5051473;28;20072;-47
2023/10/10 09:55:53;;;;;;;5.30;2.40;;;;;;;27.29;33.31;99942.47;5051242;28;20040;-45
2023/10/10 09:58:00;;;;;;;4.63;2.50;;;;;;;27.71;32.58;99945.00;5046804;28;20408;-43
2023/10/10 10:05:58;;;;;;;6.15;2.33;;;;;;;26.78;33.86;99946.38;5050750;28;20411;-44
2023/10/10 10:08:37;;;;;;;8.07;2.58;;;;;;;26.57;34.42;99938.59;5050122;28;20544;-44
2023/10/10 10:11:25;;;;;;;8.35;2.80;;;;;;;27.40;33.26;99941.13;5050532;28;20031;-44
2023/10/10 10:14:00;;;;;;;6.15;2.10;;;;;;;27.17;33.41;99937.56;5050337;28;20040;-43
2023/10/10 10:16:37;;;;;;;8.15;2.08;;;;;;;27.04;33.54;99931.03;5050408;28;20100;-42
2023/10/10 10:19:27;;;;;;;7.00;2.30;;;;;;;27.43;33.60;99929.53;5050417;28;20032;-46
2023/10/10 10:22:08;;;;;;;6.30;1.80;;;;;;;27.38;33.46;99935.16;5050017;28;20029;-44
2023/10/10 10:25:07;;;;;;;4.05;1.90;;;;;;;27.30;33.72;99941.34;5050744;28;20104;-41
2023/10/10 10:27:35;;;;;;;6.30;2.08;;;;;;;27.24;34.24;99935.16;5050436;28;20039;-47
2023/10/10 10:30:35;;;;;;;5.25;1.98;;;;;;;27.20;33.81;99930.66;5050539;28;20412;-44
2023/10/10 10:32:58;;;;;;;3.63;1.65;;;;;;;26.81;34.64;99932.91;5050156;28;20036;-42
2023/10/10 10:35:24;;;;;;;8.57;1.90;;;;;;;27.06;34.04;99931.50;5050339;28;20028;-44
2023/10/10 10:38:00;;;;;;;7.95;1.77;;;;;;;26.80;34.48;99934.00;5050169;28;20110;-45
2023/10/10 10:40:42;;;;;;;4.18;1.83;;;;;;;27.42;33.75;99935.34;5049916;28;20242;-46
2023/10/10 10:43:14;;;;;;;6.68;2.03;;;;;;;27.24;34.06;99937.91;5050316;28;20519;-44
2023/10/10 10:45:44;;;;;;;6.45;1.92;;;;;;;27.56;33.30;99938.78;5050606;28;20044;-42
2023/10/10 10:48:29;;;;;;;5.88;2.08;;;;;;;27.24;33.83;99932.44;5050436;28;20013;-44
2023/10/10 10:51:03;;;;;;;7.03;2.10;;;;;;;27.29;33.49;99934.28;5050885;28;20120;-42
2023/10/10 10:53:37;;;;;;;7.25;2.40;;;;;;;26.64;34.03;99935.50;5050461;28;20551;-42
2023/10/10 10:59:11;;;;;;;4.87;2.57;;;;;;;27.34;33.29;99927.88;5050278;28;20150;-43
2023/10/10 11:01:57;;;;;;;8.00;2.47;;;;;;;28.13;32.53;99931.88;5049901;28;20275;-48
2023/10/10 11:07:04;;;;;;;3.95;2.15;;;;;;;27.68;32.64;99930.84;5049549;28;20021;-42
2023/10/10 11:09:32;;;;;;;6.53;2.10;;;;;;;27.40;33.11;99923.94;5049899;28;20029;-44
2023/10/10 11:12:03;;;;;;;8.07;2.20;;;;;;;27.65;32.98;99930.66;5049835;28;20086;-46
2023/10/10 11:14:30;;;;;;;8.10;2.55;;;;;;;26.48;34.35;99927.59;5050005;28;20028;-44
2023/10/10 11:16:56;;;;;;;6.03;2.30;;;;;;;26.56;34.10;99928.78;5050115;28;20031;-46
2023/10/10 11:21:57;;;;;;;8.60;2.60;;;;;;;26.45;34.71;99925.47;5050274;28;20025;-46
2023/10/10 11:24:30;;;;;;;4.75;1.98;;;;;;;25.74;35.49;99930.34;5050043;28;20104;-46
2023/10/10 11:27:13;;;;;;;6.70;1.88;;;;;;;25.53;35.91;99929.91;5050221;28;20098;-43
2023/10/10 11:30:08;;;;;;;3.83;2.20;;;;;;;25.51;36.21;99929.41;5049682;28;20434;-42
2023/10/10 11:32:46;;;;;;;3.03;1.98;;;;;;;25.45;36.16;99933.31;5049992;28;20047;-45
2023/10/10 11:35:22;;;;;;;5.85;2.40;;;;;;;25.62;35.95;99925.38;5052587;28;20468;-41
2023/10/10 11:38:06;;;;;;;3.33;2.08;;;;;;;25.32;36.52;99924.00;5053353;28;20045;-44
2023/10/10 11:40:32;;;;;;;5.05;2.17;;;;;;;25.59;36.05;99939.63;5053520;28;20025;-49
2023/10/10 11:43:05;;;;;;;4.88;2.13;;;;;;;25.25;36.85;99931.75;5053637;28;20079;-43
2023/10/10 11:45:38;;;;;;;8.60;3.40;;;;;;;25.38;36.46;99941.88;5053509;28;20021;-46
2023/10/10 11:48:10;;;;;;;7.35;2.45;;;;;;;25.42;36.44;99932.00;5053416;28;20025;-46
2023/10/10 11:50:47;;;;;;;5.88;2.47;;;;;;;24.69;37.72;99942.31;5053542;28;20114;-46
2023/10/10 11:53:23;;;;;;;7.00;2.65;;;;;;;24.55;38.19;99933.25;5053506;28;20122;-43
2023/10/10 11:55:52;;;;;;;5.90;2.72;;;;;;;24.82;37.68;99937.25;5053333;28;20017;-43
2023/10/10 11:58:18;;;;;;;10.07;3.00;;;;;;;25.06;37.30;99929.81;5052804;28;20485;-43
2023/10/10 12:00:45;;;;;;;6.43;2.67;;;;;;;24.81;37.77;99928.28;5053131;28;20021;-45
2023/10/10 12:03:32;;;;;;;7.40;2.90;;;;;;;24.66;37.95;99940.19;5052897;28;20027;-45
2023/10/10 12:05:59;;;;;;;5.28;2.80;;;;;;;24.61;38.22;99937.53;5053202;28;20468;-43
2023/10/10 12:08:25;;;;;;;3.92;2.70;;;;;;;24.40;38.56;99931.50;5052785;28;20614;-45
2023/10/10 12:10:52;;;;;;;5.93;2.67;;;;;;;24.50;38.43;99939.56;5052940;28;20029;-42
2023/10/10 12:15:57;;;;;;;7.50;2.97;;;;;;;24.35;38.85;99934.28;5053156;28;20025;-44
2023/10/10 12:18:23;;;;;;;7.50;2.55;;;;;;;24.42;38.59;99942.91;5052544;28;20020;-42
2023/10/10 12:20:48;;;;;;;7.47;2.70;;;;;;;24.06;39.38;99946.03;5053077;28;20079;-43
2023/10/10 12:23:14;;;;;;;6.25;2.40;;;;;;;24.14;39.63;99939.97;5052639;28;20548;-46
2023/10/10 12:25:41;;;;;;;4.03;2.25;;;;;;;24.40;38.91;99934.22;5052392;28;20021;-45
2023/10/10 12:28:12;;;;;;;6.05;2.70;;;;;;;24.83;38.55;99933.41;5052526;28;20488;-45
2023/10/10 12:30:41;;;;;;;8.10;3.10;;;;;;;24.81;38.61;99931.00;5052530;28;20040;-46
2023/10/10 12:33:12;;;;;;;6.85;2.28;;;;;;;24.63;38.68;99939.97;5052242;28;20473;-44
2023/10/10 12:35:47;;;;;;;3.15;1.90;;;;;;;24.71;38.61;99925.69;5052505;28;20020;-44
2023/10/10 12:38:20;;;;;;;5.97;2.20;;;;;;;24.70;38.54;99935.78;5052192;28;20045;-44
2023/10/10 12:40:54;;;;;;;3.45;2.08;;;;;;;25.04;38.23;99940.19;5052361;28;20114;-44
2023/10/10 12:43:20;;;;;;;5.65;2.00;;;;;;;24.97;37.97;99929.66;5052758;28;20021;-42
2023/10/10 12:45:47;;;;;;;5.30;2.30;;;;;;;24.91;38.55;99939.03;5052634;28;20078;-43
2023/10/10 12:48:14;;;;;;;4.30;2.15;;;;;;;25.02;38.11;99931.53;5052090;28;20025;-48
2023/10/10 12:50:44;;;;;;;2.75;1.90;;;;;;;25.05;38.10;99936.34;5052320;28;20036;-45
2023/10/10 12:53:15;;;;;;;5.70;2.20;;;;;;;25.35;37.54;99934.31;5052093;28;20048;-42
2023/10/10 12:55:48;;;;;;;3.90;2.38;;;;;;;25.28;37.63;99940.09;5051724;28;20033;-43
2023/10/10 12:58:23;;;;;;;3.05;2.00;;;;;;;24.96;38.29;99933.50;5051283;28;20021;-44
2023/10/10 13:00:52;;;;;;;2.58;1.83;;;;;;;24.75;38.41;99935.72;5051807;28;20506;-44
2023/10/10 13:03:32;;;;;;;3.90;1.65;;;;;;;24.80;38.53;99944.91;5051810;28;20036;-47
2023/10/10 13:05:59;;;;;;;2.67;1.48;;;;;;;24.69;37.92;99933.34;5051911;28;20337;-42
2023/10/10 13:08:48;;;;;;;3.17;1.50;;;;;;;24.11;39.08;99926.16;5051835;28;20393;-45
2023/10/10 13:11:32;;;;;;;4.53;1.48;;;;;;;24.23;39.13;99936.63;5052036;28;20464;-42
2023/10/10 13:14:08;;;;;;;5.97;1.70;;;;;;;24.25;38.69;99939.84;5052021;28;20100;-45
2023/10/10 13:19:09;;;;;;;2.92;1.63;;;;;;;24.12;39.21;99954.94;5052168;28;20035;-48
2023/10/10 13:21:42;;;;;;;3.45;1.20;;;;;;;24.25;38.86;99939.84;5052025;28;20322;-49
2023/10/10 13:24:15;;;;;;;2.85;1.13;;;;;;;24.62;38.27;99943.75;5051737;28;20024;-43
2023/10/10 13:26:42;;;;;;;1.20;1.10;;;;;;;24.54;38.34;99940.63;5051621;28;20561;-45
2023/10/10 13:29:11;;;;;;;3.83;1.77;;;;;;;24.72;38.11;99958.06;5052109;28;20061;-42
2023/10/10 13:31:38;;;;;;;3.63;1.60;;;;;;;24.72;38.52;99962.69;5051679;28;20025;-41
2023/10/10 13:34:04;;;;;;;5.10;2.30;;;;;;;24.26;39.33;99961.31;5051537;28;20047;-44
2023/10/10 13:36:32;;;;;;;5.85;1.88;;;;;;;24.49;39.30;99956.97;5051137;28;20432;-49
2023/10/10 13:38:59;;;;;;;2.47;1.77;;;;;;;24.56;39.59;99964.78;5051339;28;20040;-44
2023/10/10 13:41:28;;;;;;;4.07;2.00;;;;;;;24.05;40.78;99965.38;5051458;28;20461;-46
2023/10/10 13:43:59;;;;;;;4.05;2.00;;;;;;;24.28;40.20;99964.56;5051462;28;20447;-46
2023/10/10 13:46:27;;;;;;;7.22;2.45;;;;;;;24.13;40.88;99962.00;5051292;28;20021;-45
2023/10/10 13:48:52;;;;;;;4.93;2.83;;;;;;;24.15;40.50;99957.91;5051611;28;20068;-43
2023/10/10 13:51:18;;;;;;;4.65;2.55;;;;;;;23.85;41.19;99961.72;5051527;28;20056;-44
2023/10/10 13:53:45;;;;;;;4.80;2.30;;;;;;;24.07;40.90;99963.97;5051356;28;20013;-43
2023/10/10 13:56:13;;;;;;;5.28;2.83;;;;;;;24.30;40.33;99965.06;5051058;28;20029;-42
2023/10/10 13:58:46;;;;;;;10.38;2.70;;;;;;;24.52;39.59;99963.75;5050774;28;20021;-45
2023/10/10 14:03:48;;;;;;;4.95;2.60;;;;;;;24.66;39.43;99972.03;5051639;28;20095;-42
2023/10/10 14:06:34;;;;;;;4.97;2.60;;;;;;;24.56;39.63;99967.50;5051571;28;20033;-47
2023/10/10 14:09:00;;;;;;;4.55;2.58;;;;;;;24.39;39.97;99966.06;5051706;28;20086;-43
2023/10/10 14:11:25;;;;;;;6.40;2.70;;;;;;;24.29;40.19;99974.31;5051842;28;20024;-44
2023/10/10 14:13:53;;;;;;;6.53;2.60;;;;;;;24.44;39.79;99965.19;5051233;28;20043;-48
2023/10/10 14:16:20;;;;;;;3.83;2.60;;;;;;;24.52;39.71;99972.75;5051367;28;20098;-46
2023/10/10 14:18:47;;;;;;;3.70;2.10;;;;;;;24.57;39.78;99966.41;5051489;28;20021;-43
2023/10/10 14:21:14;;;;;;;5.28;2.45;;;;;;;24.26;40.24;99966.75;5051659;28;20021;-43
2023/10/10 14:23:40;;;;;;;5.40;2.75;;;;;;;24.57;39.93;99974.56;5051456;28;20445;-45
2023/10/10 14:26:12;;;;;;;6.57;3.03;;;;;;;24.58;39.76;99977.00;5052053;28;20049;-44
2023/10/10 14:28:50;;;;;;;4.55;2.58;;;;;;;23.95;41.25;99975.25;5051064;28;20055;-44
2023/10/10 14:31:23;;;;;;;4.82;2.78;;;;;;;23.47;42.12;99982.41;5051260;28;20040;-43
2023/10/10 14:33:50;;;;;;;7.65;2.67;;;;;;;23.58;42.01;99983.94;5050772;28;20028;-45
2023/10/10 14:36:16;;;;;;;6.22;2.70;;;;;;;23.51;42.22;99983.47;5051205;28;20091;-43
2023/10/10 14:38:46;;;;;;;7.05;2.42;;;;;;;23.24;42.83;99979.31;5051103;28;20029;-45
2023/10/10 14:41:18;;;;;;;7.63;2.80;;;;;;;23.65;42.07;99989.06;5050478;28;20097;-45
2023/10/10 14:43:54;;;;;;;5.15;2.97;;;;;;;24.06;41.19;99992.22;5051242;28;20024;-43
2023/10/10 14:46:27;;;;;;;4.90;2.67;;;;;;;23.72;42.01;99987.66;5051131;28;20032;-47
2023/10/10 14:49:05;;;;;;;4.35;2.55;;;;;;;24.15;40.85;99995.94;5051059;28;20083;-47